PWSweather.com
Personal Weather Stations
Station Observations
KILMORRI1
Goose Lake, Morris, IL 60450

Goose LakeMorris, IL 60450

Lat: 41.34, Lon: -88.3

Elevation: 523

Station Type:

Latest ConditionsUpdated 10:30:04 AM CST Monday, Dec 10, 2018
Currently Today's Max Today's Min Today's Average
Temperature 18.7°F-7.4°C 18.7°F-7.4°C 10.0°F-12.2°C 14.3°F-9.8°C
Dew Point 16.0°F-8.9°C 16.0°F-8.9°C 6.7°F-14.1°C 11.4°F-11.4°C
Winds 1.2 mph S1.9 kmh S 2.3 mph -3.7 kmh - - 1.0 mph 1.6 kmh
Wind Gusts 3.5 mph5.6 kmh 3.5 mph5.6 kmh - -
Humidity 89% 89% 86% 88%
Pressure 30.35 in1027.8 mb 30.36 in1028.1 mb 30.33 in1027.1 mb -
Hour Temp Dew Point Humidity Winds Wind Gusts Pressure Precip Precip Rate Daily Precip Total
10:30 AM 18.7°F-7.4°C 16.0°F-8.9°C 89% 1.2 mph S1.9 kmh S 3.5 mph5.6 kmh 30.35 in1027.8 mb - 0.00 in0.0 mm 0.00 in0.0 mm
10:20 AM 18.2°F-7.7°C 15.5°F-9.2°C 89% 2.3 mph SSW3.7 kmh SSW 3.5 mph5.6 kmh 30.35 in1027.8 mb - 0.00 in0.0 mm 0.00 in0.0 mm
10:10 AM 17.6°F-8.0°C 14.9°F-9.5°C 89% 1.2 mph SSW1.9 kmh SSW 3.5 mph5.6 kmh 30.36 in1028.1 mb - 0.00 in0.0 mm 0.00 in0.0 mm
10:00 AM 17.6°F-8.0°C 14.9°F-9.5°C 89% 2.3 mph S3.7 kmh S 3.5 mph5.6 kmh 30.36 in1028.1 mb - 0.00 in0.0 mm 0.00 in0.0 mm
09:50 AM 16.6°F-8.6°C 13.7°F-10.2°C 88% 1.2 mph S1.9 kmh S 1.2 mph1.9 kmh 30.36 in1028.1 mb - 0.00 in0.0 mm 0.00 in0.0 mm
09:40 AM 16.5°F-8.6°C 13.5°F-10.3°C 88% 1.2 mph S1.9 kmh S 3.5 mph5.6 kmh 30.36 in1028.1 mb - 0.00 in0.0 mm 0.00 in0.0 mm
09:30 AM 16.5°F-8.6°C 13.6°F-10.2°C 88% 1.2 mph SE1.9 kmh SE 2.3 mph3.7 kmh 30.36 in1028.1 mb - 0.00 in0.0 mm 0.00 in0.0 mm
09:20 AM 16.4°F-8.7°C 13.5°F-10.3°C 88% 2.3 mph S3.7 kmh S 3.5 mph5.6 kmh 30.36 in1028.1 mb - 0.00 in0.0 mm 0.00 in0.0 mm
09:10 AM 16.3°F-8.7°C 13.4°F-10.3°C 88% 2.3 mph SW3.7 kmh SW 3.5 mph5.6 kmh 30.36 in1028.1 mb - 0.00 in0.0 mm 0.00 in0.0 mm
09:00 AM 15.7°F-9.1°C 12.8°F-10.7°C 88% Calm Calm 1.2 mph1.9 kmh 30.36 in1028.1 mb - 0.00 in0.0 mm 0.00 in0.0 mm
08:50 AM 14.8°F-9.6°C 11.9°F-11.2°C 88% Calm Calm 1.2 mph1.9 kmh 30.35 in1027.8 mb - 0.00 in0.0 mm 0.00 in0.0 mm
08:40 AM 14.2°F-9.9°C 11.3°F-11.5°C 88% Calm Calm -- 30.35 in1027.8 mb - 0.00 in0.0 mm 0.00 in0.0 mm
08:30 AM 13.6°F-10.2°C 10.7°F-11.8°C 88% Calm Calm 1.2 mph1.9 kmh 30.35 in1027.8 mb - 0.00 in0.0 mm 0.00 in0.0 mm
08:20 AM 13.0°F-10.6°C 10.1°F-12.2°C 88% 2.3 mph S3.7 kmh S 3.5 mph5.6 kmh 30.34 in1027.4 mb - 0.00 in0.0 mm 0.00 in0.0 mm
08:10 AM 12.3°F-10.9°C 9.2°F-12.7°C 87% 1.2 mph SW1.9 kmh SW 1.2 mph1.9 kmh 30.34 in1027.4 mb - 0.00 in0.0 mm 0.00 in0.0 mm
08:00 AM 11.7°F-11.3°C 8.6°F-13.0°C 87% 1.2 mph SW1.9 kmh SW 2.3 mph3.7 kmh 30.34 in1027.4 mb - 0.00 in0.0 mm 0.00 in0.0 mm
07:50 AM 11.2°F-11.6°C 8.1°F-13.3°C 87% Calm Calm -- 30.34 in1027.4 mb - 0.00 in0.0 mm 0.00 in0.0 mm
07:40 AM 10.8°F-11.8°C 7.7°F-13.5°C 87% Calm Calm -- 30.34 in1027.4 mb - 0.00 in0.0 mm 0.00 in0.0 mm
07:30 AM 10.7°F-11.8°C 7.6°F-13.6°C 87% 1.2 mph SW1.9 kmh SW 1.2 mph1.9 kmh 30.33 in1027.1 mb - 0.00 in0.0 mm 0.00 in0.0 mm
07:20 AM 10.4°F-12.0°C 7.3°F-13.7°C 87% Calm Calm 1.2 mph1.9 kmh 30.33 in1027.1 mb - 0.00 in0.0 mm 0.00 in0.0 mm
07:10 AM 10.0°F-12.2°C 6.7°F-14.1°C 86% Calm Calm 1.2 mph1.9 kmh 30.33 in1027.1 mb - 0.00 in0.0 mm 0.00 in0.0 mm
07:00 AM 10.1°F-12.2°C 6.7°F-14.1°C 86% Calm Calm -- 30.33 in1027.1 mb - 0.00 in0.0 mm 0.00 in0.0 mm
06:50 AM 10.2°F-12.1°C 7.1°F-13.8°C 87% Calm Calm 1.2 mph1.9 kmh 30.33 in1027.1 mb - 0.00 in0.0 mm 0.00 in0.0 mm
06:40 AM 10.4°F-12.0°C 7.0°F-13.9°C 86% Calm Calm -- 30.34 in1027.4 mb - 0.00 in0.0 mm 0.00 in0.0 mm
06:30 AM 10.7°F-11.8°C 7.6°F-13.6°C 87% Calm Calm -- 30.33 in1027.1 mb - 0.00 in0.0 mm 0.00 in0.0 mm
06:20 AM 10.7°F-11.8°C 7.6°F-13.6°C 87% 1.2 mph SW1.9 kmh SW 1.2 mph1.9 kmh 30.33 in1027.1 mb - 0.00 in0.0 mm 0.00 in0.0 mm
06:10 AM 10.7°F-11.8°C 7.6°F-13.6°C 87% Calm Calm 1.2 mph1.9 kmh 30.33 in1027.1 mb - 0.00 in0.0 mm 0.00 in0.0 mm
06:00 AM 10.6°F-11.9°C 7.5°F-13.6°C 87% Calm Calm 1.2 mph1.9 kmh 30.33 in1027.1 mb - 0.00 in0.0 mm 0.00 in0.0 mm
05:50 AM 10.8°F-11.8°C 7.7°F-13.5°C 87% Calm Calm -- 30.33 in1027.1 mb - 0.00 in0.0 mm 0.00 in0.0 mm
05:40 AM 11.0°F-11.7°C 7.9°F-13.4°C 87% Calm Calm -- 30.33 in1027.1 mb - 0.00 in0.0 mm 0.00 in0.0 mm
05:30 AM 11.3°F-11.5°C 8.2°F-13.2°C 87% Calm Calm 1.2 mph1.9 kmh 30.33 in1027.1 mb - 0.00 in0.0 mm 0.00 in0.0 mm
05:20 AM 11.4°F-11.4°C 8.3°F-13.2°C 87% Calm Calm -- 30.33 in1027.1 mb - 0.00 in0.0 mm 0.00 in0.0 mm
05:10 AM 11.9°F-11.2°C 8.8°F-12.9°C 87% Calm Calm 1.2 mph1.9 kmh 30.33 in1027.1 mb - 0.00 in0.0 mm 0.00 in0.0 mm
05:00 AM 12.3°F-10.9°C 9.1°F-12.7°C 87% Calm Calm -- 30.33 in1027.1 mb - 0.00 in0.0 mm 0.00 in0.0 mm
04:50 AM 12.5°F-10.8°C 9.4°F-12.6°C 87% Calm Calm 1.2 mph1.9 kmh 30.33 in1027.1 mb - 0.00 in0.0 mm 0.00 in0.0 mm
04:40 AM 13.0°F-10.6°C 9.9°F-12.3°C 87% Calm Calm -- 30.33 in1027.1 mb - 0.00 in0.0 mm 0.00 in0.0 mm
04:30 AM 13.7°F-10.2°C 10.5°F-11.9°C 87% 1.2 mph WSW1.9 kmh WSW 1.2 mph1.9 kmh 30.33 in1027.1 mb - 0.00 in0.0 mm 0.00 in0.0 mm
04:20 AM 14.5°F-9.7°C 11.6°F-11.3°C 88% 1.2 mph SW1.9 kmh SW 2.3 mph3.7 kmh 30.33 in1027.1 mb - 0.00 in0.0 mm 0.00 in0.0 mm
04:10 AM 14.7°F-9.6°C 11.7°F-11.3°C 88% 2.3 mph WSW3.7 kmh WSW 3.5 mph5.6 kmh 30.34 in1027.4 mb - 0.00 in0.0 mm 0.00 in0.0 mm
04:00 AM 15.0°F-9.4°C 12.1°F-11.1°C 88% 1.2 mph W1.9 kmh W 2.3 mph3.7 kmh 30.34 in1027.4 mb - 0.00 in0.0 mm 0.00 in0.0 mm
03:50 AM 15.3°F-9.3°C 12.4°F-10.9°C 88% 1.2 mph W1.9 kmh W 2.3 mph3.7 kmh 30.34 in1027.4 mb - 0.00 in0.0 mm 0.00 in0.0 mm
03:40 AM 15.0°F-9.4°C 12.1°F-11.1°C 88% 1.2 mph NW1.9 kmh NW 2.3 mph3.7 kmh 30.34 in1027.4 mb - 0.00 in0.0 mm 0.00 in0.0 mm
03:30 AM 14.7°F-9.6°C 11.8°F-11.2°C 88% 1.2 mph NW1.9 kmh NW 1.2 mph1.9 kmh 30.34 in1027.4 mb - 0.00 in0.0 mm 0.00 in0.0 mm
03:20 AM 14.3°F-9.8°C 11.4°F-11.4°C 88% 1.2 mph WNW1.9 kmh WNW 2.3 mph3.7 kmh 30.34 in1027.4 mb - 0.00 in0.0 mm 0.00 in0.0 mm
03:10 AM 14.1°F-9.9°C 11.2°F-11.6°C 88% 1.2 mph NW1.9 kmh NW 2.3 mph3.7 kmh 30.34 in1027.4 mb - 0.00 in0.0 mm 0.00 in0.0 mm
03:00 AM 14.1°F-9.9°C 11.2°F-11.6°C 88% 1.2 mph NW1.9 kmh NW 3.5 mph5.6 kmh 30.34 in1027.4 mb - 0.00 in0.0 mm 0.00 in0.0 mm
02:50 AM 13.9°F-10.1°C 11.0°F-11.7°C 88% 1.2 mph NW1.9 kmh NW 3.5 mph5.6 kmh 30.35 in1027.8 mb - 0.00 in0.0 mm 0.00 in0.0 mm
02:40 AM 14.2°F-9.9°C 11.3°F-11.5°C 88% Calm Calm 2.3 mph3.7 kmh 30.35 in1027.8 mb - 0.00 in0.0 mm 0.00 in0.0 mm
02:30 AM 14.7°F-9.6°C 11.8°F-11.2°C 88% 1.2 mph WNW1.9 kmh WNW 1.2 mph1.9 kmh 30.34 in1027.4 mb - 0.00 in0.0 mm 0.00 in0.0 mm
02:20 AM 15.1°F-9.4°C 12.2°F-11.0°C 88% Calm Calm 1.2 mph1.9 kmh 30.34 in1027.4 mb - 0.00 in0.0 mm 0.00 in0.0 mm
02:10 AM 15.4°F-9.2°C 12.5°F-10.8°C 88% 1.2 mph NW1.9 kmh NW 3.5 mph5.6 kmh 30.34 in1027.4 mb - 0.00 in0.0 mm 0.00 in0.0 mm
02:00 AM 15.5°F-9.2°C 12.9°F-10.6°C 89% 1.2 mph W1.9 kmh W 3.5 mph5.6 kmh 30.34 in1027.4 mb - 0.00 in0.0 mm 0.00 in0.0 mm
01:50 AM 15.7°F-9.1°C 12.8°F-10.7°C 88% 2.3 mph WNW3.7 kmh WNW 3.5 mph5.6 kmh 30.34 in1027.4 mb - 0.00 in0.0 mm 0.00 in0.0 mm
01:40 AM 16.1°F-8.8°C 13.4°F-10.3°C 89% 1.2 mph WNW1.9 kmh WNW 2.3 mph3.7 kmh 30.34 in1027.4 mb - 0.00 in0.0 mm 0.00 in0.0 mm
01:30 AM 16.8°F-8.4°C 14.1°F-9.9°C 89% 2.3 mph NW3.7 kmh NW 3.5 mph5.6 kmh 30.34 in1027.4 mb - 0.00 in0.0 mm 0.00 in0.0 mm
01:20 AM 17.3°F-8.2°C 14.6°F-9.7°C 89% 2.3 mph NW3.7 kmh NW 3.5 mph5.6 kmh 30.34 in1027.4 mb - 0.00 in0.0 mm 0.00 in0.0 mm
01:10 AM 17.5°F-8.1°C 14.8°F-9.6°C 89% 1.2 mph W1.9 kmh W 2.3 mph3.7 kmh 30.34 in1027.4 mb - 0.00 in0.0 mm 0.00 in0.0 mm
01:00 AM 17.5°F-8.1°C 14.8°F-9.6°C 89% 2.3 mph WNW3.7 kmh WNW 2.3 mph3.7 kmh 30.34 in1027.4 mb - 0.00 in0.0 mm 0.00 in0.0 mm
12:50 AM 17.7°F-7.9°C 15.0°F-9.4°C 89% 2.3 mph NW3.7 kmh NW 2.3 mph3.7 kmh 30.34 in1027.4 mb - 0.00 in0.0 mm 0.00 in0.0 mm
12:40 AM 18.3°F-7.6°C 15.6°F-9.1°C 89% 1.2 mph NW1.9 kmh NW 2.3 mph3.7 kmh 30.34 in1027.4 mb - 0.00 in0.0 mm 0.00 in0.0 mm
12:30 AM 18.7°F-7.4°C 16.0°F-8.9°C 89% 1.2 mph NW1.9 kmh NW 2.3 mph3.7 kmh 30.34 in1027.4 mb - 0.00 in0.0 mm 0.00 in0.0 mm
12:20 AM 18.7°F-7.4°C 16.0°F-8.9°C 89% 2.3 mph NW3.7 kmh NW 3.5 mph5.6 kmh 30.34 in1027.4 mb - 0.00 in0.0 mm 0.00 in0.0 mm
12:10 AM 18.4°F-7.6°C 15.7°F-9.1°C 89% 1.2 mph NW1.9 kmh NW 2.3 mph3.7 kmh 30.35 in1027.8 mb - 0.00 in0.0 mm 0.00 in0.0 mm
12:00 AM 18.7°F-7.4°C 16.0°F-8.9°C 89% 1.2 mph WNW1.9 kmh WNW 3.5 mph5.6 kmh 30.34 in1027.4 mb - 0.00 in0.0 mm 0.00 in0.0 mm